Time;durP1;ratioP1;P1;durP2;ratioP2;P2;SDS_P1;SDS_P2;PMS_P1;PMS_P2;Temp;Humidity;BMP_temperature;BMP_pressure;BME280_temperature;BME280_humidity;BME280_pressure;Samples;Min_cycle;Max_cycle;Signal;HPM_P1;HPM_P2
2022/03/20 00:00:36;;;;;;;;;;;3.30;78.30;;;;;;5168298;28;19932;-52
2022/03/20 00:03:10;;;;;;;;;;;3.30;77.80;;;;;;5165765;28;20380;-50
2022/03/20 00:05:42;;;;;;;;;;;3.30;78.00;;;;;;5172266;28;19925;-54
2022/03/20 00:08:15;;;;;;;;;;;3.20;77.90;;;;;;5171154;28;19928;-54
2022/03/20 00:10:49;;;;;;;;;;;3.30;78.80;;;;;;5157116;28;19964;-53
2022/03/20 00:13:23;;;;;;;;;;;3.20;78.30;;;;;;5162413;28;19926;-52
2022/03/20 00:15:57;;;;;;;;;;;3.20;78.40;;;;;;5170277;28;19925;-53
2022/03/20 00:18:29;;;;;;;;;;;3.20;79.10;;;;;;5163380;28;19929;-53
2022/03/20 00:21:01;;;;;;;;;;;3.20;78.70;;;;;;5163000;28;19933;-48
2022/03/20 00:23:34;;;;;;;;;;;3.20;78.70;;;;;;5169207;28;20389;-52
2022/03/20 00:26:07;;;;;;;;;;;3.20;79.00;;;;;;5166145;28;19936;-50
2022/03/20 00:28:39;;;;;;;;;;;3.20;78.90;;;;;;5172340;28;19933;-51
2022/03/20 00:31:13;;;;;;;;;;;3.20;78.90;;;;;;5164138;28;20404;-49
2022/03/20 00:33:45;;;;;;;;;;;3.10;78.70;;;;;;5168453;28;19933;-49
2022/03/20 00:36:17;;;;;;;;;;;3.10;79.30;;;;;;5168038;28;19925;-48
2022/03/20 00:38:49;;;;;;;;;;;3.10;79.40;;;;;;5164137;28;19925;-46
2022/03/20 00:41:22;;;;;;;;;;;3.00;79.00;;;;;;5161984;28;19926;-52
2022/03/20 00:43:54;;;;;;;;;;;3.00;79.40;;;;;;5168862;28;19929;-47
2022/03/20 00:46:27;;;;;;;;;;;3.00;79.70;;;;;;5166323;28;19925;-52
2022/03/20 00:48:59;;;;;;;;;;;3.00;79.40;;;;;;5169367;28;19948;-47
2022/03/20 00:51:32;;;;;;;;;;;2.90;79.40;;;;;;5174414;28;19925;-50
2022/03/20 00:54:04;;;;;;;;;;;2.90;79.00;;;;;;5174451;28;19925;-48
2022/03/20 00:56:37;;;;;;;;;;;2.90;80.30;;;;;;5168406;28;19937;-48
2022/03/20 00:59:09;;;;;;;;;;;2.80;79.70;;;;;;5172846;28;19932;-50
2022/03/20 01:01:42;;;;;;;;;;;2.80;79.60;;;;;;5169458;28;19936;-50
2022/03/20 01:04:16;;;;;;;;;;;2.80;80.00;;;;;;5194400;23;19945;-54
2022/03/20 01:06:48;;;;;;;;;;;2.80;80.40;;;;;;5155755;28;19941;-55
2022/03/20 01:09:22;;;;;;;;;;;2.70;80.50;;;;;;5158575;28;19930;-53
2022/03/20 01:11:55;;;;;;;;;;;2.70;80.20;;;;;;5156953;28;19936;-52
2022/03/20 01:14:27;;;;;;;;;;;2.70;79.80;;;;;;5151516;28;20837;-54
2022/03/20 01:17:00;;;;;;;;;;;2.70;80.00;;;;;;5155167;28;19929;-54
2022/03/20 01:19:33;;;;;;;;;;;2.60;80.00;;;;;;5159862;28;20221;-52
2022/03/20 01:22:05;;;;;;;;;;;2.60;80.70;;;;;;5154457;28;19960;-54
2022/03/20 01:24:37;;;;;;;;;;;2.60;80.70;;;;;;5156903;28;19925;-54
2022/03/20 01:27:09;;;;;;;;;;;2.60;80.70;;;;;;5158327;28;19932;-55
2022/03/20 01:29:41;;;;;;;;;;;2.60;81.20;;;;;;5158595;28;19925;-55
2022/03/20 01:32:14;;;;;;;;;;;2.60;80.80;;;;;;5157176;28;19933;-55
2022/03/20 01:34:47;;;;;;;;;;;2.60;81.00;;;;;;5158200;28;19926;-52
2022/03/20 01:37:19;;;;;;;;;;;2.60;81.20;;;;;;5157283;28;19925;-51
2022/03/20 01:39:52;;;;;;;;;;;2.60;81.20;;;;;;5152301;28;19932;-55
2022/03/20 01:42:24;;;;;;;;;;;2.50;80.70;;;;;;5158129;28;20297;-52
2022/03/20 01:44:56;;;;;;;;;;;2.50;80.50;;;;;;5160966;28;19937;-54
2022/03/20 01:47:29;;;;;;;;;;;2.50;81.00;;;;;;5155649;28;19932;-55
2022/03/20 01:50:01;;;;;;;;;;;2.40;81.40;;;;;;5153665;28;19941;-55
2022/03/20 01:52:33;;;;;;;;;;;2.40;80.80;;;;;;5154084;28;20407;-50
2022/03/20 01:55:07;;;;;;;;;;;2.40;81.20;;;;;;5157608;28;19943;-52
2022/03/20 01:57:39;;;;;;;;;;;2.40;82.00;;;;;;5152840;28;19932;-53
2022/03/20 02:00:14;;;;;;;;;;;2.40;81.80;;;;;;5147923;28;20424;-54
2022/03/20 02:02:46;;;;;;;;;;;2.40;82.00;;;;;;5156342;28;20325;-53
2022/03/20 02:05:19;;;;;;;;;;;2.40;82.00;;;;;;5157424;28;20409;-52
2022/03/20 02:07:51;;;;;;;;;;;2.40;82.70;;;;;;5157247;28;25702;-51
2022/03/20 02:10:35;;;;;;;;;;;2.40;82.20;;;;;;5160514;28;19937;-55
2022/03/20 02:13:07;;;;;;;;;;;2.40;82.00;;;;;;5156508;28;19936;-53
2022/03/20 02:15:41;;;;;;;;;;;2.40;81.80;;;;;;5157446;28;19925;-50
2022/03/20 02:18:14;;;;;;;;;;;2.30;81.60;;;;;;5162504;28;19926;-52
2022/03/20 02:20:47;;;;;;;;;;;2.30;81.80;;;;;;5161602;28;19925;-52
2022/03/20 02:23:19;;;;;;;;;;;2.30;82.10;;;;;;5162866;28;19930;-54
2022/03/20 02:25:51;;;;;;;;;;;2.30;82.30;;;;;;5155802;28;19922;-54
2022/03/20 02:28:23;;;;;;;;;;;2.30;82.20;;;;;;5159670;28;19925;-51
2022/03/20 02:30:56;;;;;;;;;;;2.30;82.10;;;;;;5159069;28;19925;-52
2022/03/20 02:33:29;;;;;;;;;;;2.30;82.80;;;;;;5161162;28;19929;-50
2022/03/20 02:36:01;;;;;;;;;;;2.30;82.30;;;;;;5161989;28;20000;-54
2022/03/20 02:38:36;;;;;;;;;;;2.30;82.50;;;;;;5156816;28;19930;-55
2022/03/20 02:41:14;;;;;;;;;;;2.30;82.50;;;;;;5156731;28;19925;-53
2022/03/20 02:43:48;;;;;;;;;;;2.30;83.00;;;;;;5160568;28;20505;-53
2022/03/20 02:46:20;;;;;;;;;;;2.20;83.00;;;;;;5157478;28;19929;-53
2022/03/20 02:48:53;;;;;;;;;;;2.20;82.20;;;;;;5140737;28;19932;-52
2022/03/20 02:51:25;;;;;;;;;;;2.20;82.60;;;;;;5131656;28;19926;-52
2022/03/20 02:53:57;;;;;;;;;;;2.20;82.90;;;;;;5133115;28;19933;-55
2022/03/20 02:56:32;;;;;;;;;;;2.10;83.00;;;;;;5154768;28;19929;-50
2022/03/20 02:59:05;;;;;;;;;;;2.10;83.10;;;;;;5152915;28;19929;-54
2022/03/20 03:01:37;;;;;;;;;;;2.10;82.70;;;;;;5137158;28;19929;-54
2022/03/20 03:04:09;;;;;;;;;;;2.10;82.20;;;;;;5137501;28;19929;-53
2022/03/20 03:06:42;;;;;;;;;;;2.10;82.60;;;;;;5139174;28;19948;-54
2022/03/20 03:12:05;;;;;;;;;;;2.00;82.60;;;;;;5139606;28;19925;-55
2022/03/20 03:17:29;;;;;;;;;;;1.90;82.50;;;;;;5137236;28;19926;-56
2022/03/20 03:20:02;;;;;;;;;;;1.90;83.20;;;;;;5137059;28;19937;-52
2022/03/20 03:22:34;;;;;;;;;;;1.90;82.60;;;;;;5139797;28;19925;-55
2022/03/20 03:25:07;;;;;;;;;;;1.90;83.10;;;;;;5135572;28;19929;-51
2022/03/20 03:27:39;;;;;;;;;;;1.90;82.90;;;;;;5139372;28;20005;-53
2022/03/20 03:30:15;;;;;;;;;;;1.90;83.60;;;;;;5134974;28;19929;-52
2022/03/20 03:32:47;;;;;;;;;;;1.90;83.70;;;;;;5151589;28;19930;-52
2022/03/20 03:38:14;;;;;;;;;;;1.90;83.60;;;;;;5140321;28;19921;-55
2022/03/20 03:40:47;;;;;;;;;;;1.90;83.30;;;;;;5137237;28;19952;-54
2022/03/20 03:43:20;;;;;;;;;;;1.90;82.60;;;;;;5138311;28;19925;-51
2022/03/20 03:45:56;;;;;;;;;;;1.90;83.00;;;;;;5133443;28;20374;-53
2022/03/20 03:48:28;;;;;;;;;;;1.90;83.60;;;;;;5135317;28;20741;-55
2022/03/20 03:51:03;;;;;;;;;;;1.90;83.10;;;;;;5149962;28;19925;-52
2022/03/20 03:53:35;;;;;;;;;;;1.90;83.70;;;;;;5159538;28;19929;-55
2022/03/20 03:56:08;;;;;;;;;;;1.90;83.50;;;;;;5158035;28;20462;-54
2022/03/20 03:58:41;;;;;;;;;;;1.90;82.90;;;;;;5157416;28;20670;-52
2022/03/20 04:01:13;;;;;;;;;;;1.90;82.70;;;;;;5159327;28;19936;-52
2022/03/20 04:03:45;;;;;;;;;;;1.90;83.50;;;;;;5158156;28;19926;-55
2022/03/20 04:06:18;;;;;;;;;;;1.80;83.20;;;;;;5154663;28;19926;-55
2022/03/20 04:08:50;;;;;;;;;;;1.80;83.30;;;;;;5158937;28;20183;-52
2022/03/20 04:11:22;;;;;;;;;;;1.80;83.30;;;;;;5158089;28;19944;-55
2022/03/20 04:13:56;;;;;;;;;;;1.80;83.80;;;;;;5160624;28;20028;-54
2022/03/20 04:16:28;;;;;;;;;;;1.80;83.40;;;;;;5160698;28;19937;-52
2022/03/20 04:19:00;;;;;;;;;;;1.80;83.90;;;;;;5163992;28;19932;-51
2022/03/20 04:21:33;;;;;;;;;;;1.70;83.90;;;;;;5158388;28;19930;-55
2022/03/20 04:24:07;;;;;;;;;;;1.70;83.90;;;;;;5163849;28;19944;-53
2022/03/20 04:26:39;;;;;;;;;;;1.70;84.20;;;;;;5162746;28;19925;-51
2022/03/20 04:29:12;;;;;;;;;;;1.70;84.30;;;;;;5163593;28;20832;-53
2022/03/20 04:31:44;;;;;;;;;;;1.60;83.30;;;;;;5158633;28;19933;-48
2022/03/20 04:34:16;;;;;;;;;;;1.60;83.60;;;;;;5151462;28;19925;-55
2022/03/20 04:36:49;;;;;;;;;;;1.60;84.10;;;;;;5158334;28;19936;-55
2022/03/20 04:39:22;;;;;;;;;;;1.60;84.10;;;;;;5162152;28;19972;-53
2022/03/20 04:41:54;;;;;;;;;;;1.60;84.40;;;;;;5162987;28;19933;-51
2022/03/20 04:44:26;;;;;;;;;;;1.60;84.50;;;;;;5160589;28;19933;-52
2022/03/20 04:46:59;;;;;;;;;;;1.50;83.60;;;;;;5165040;28;19926;-51
2022/03/20 05:00:56;;;;;;;;;;;1.40;85.10;;;;;;5140057;28;19925;-51
2022/03/20 05:03:31;;;;;;;;;;;1.40;85.40;;;;;;5143856;28;19932;-53
2022/03/20 05:06:05;;;;;;;;;;;1.40;85.30;;;;;;5160183;28;19925;-51
2022/03/20 05:08:37;;;;;;;;;;;1.40;85.40;;;;;;5157553;28;19925;-54
2022/03/20 05:14:02;;;;;;;;;;;1.30;85.20;;;;;;5157341;28;19926;-52
2022/03/20 05:16:34;;;;;;;;;;;1.30;85.90;;;;;;5158526;28;19931;-50
2022/03/20 05:19:06;;;;;;;;;;;1.30;85.70;;;;;;5161211;28;20031;-50
2022/03/20 05:21:38;;;;;;;;;;;1.30;85.70;;;;;;5155952;28;19921;-53
2022/03/20 05:24:13;;;;;;;;;;;1.30;86.10;;;;;;5159664;28;19925;-50
2022/03/20 05:26:45;;;;;;;;;;;1.20;85.00;;;;;;5158384;28;19926;-51
2022/03/20 05:29:17;;;;;;;;;;;1.20;84.80;;;;;;5158191;28;20400;-54
2022/03/20 05:31:49;;;;;;;;;;;1.10;85.30;;;;;;5157664;28;19926;-50
2022/03/20 05:34:22;;;;;;;;;;;1.10;86.40;;;;;;5163517;28;20353;-50
2022/03/20 05:36:56;;;;;;;;;;;1.10;87.00;;;;;;5156068;28;19925;-54
2022/03/20 05:39:28;;;;;;;;;;;1.10;86.40;;;;;;5160223;28;19925;-54
2022/03/20 05:42:00;;;;;;;;;;;1.10;86.60;;;;;;5166910;28;19925;-54
2022/03/20 05:44:33;;;;;;;;;;;1.20;87.10;;;;;;5173681;28;19926;-53
2022/03/20 05:47:05;;;;;;;;;;;1.20;86.80;;;;;;5159927;28;19926;-52
2022/03/20 05:49:38;;;;;;;;;;;1.20;87.40;;;;;;5155371;28;19932;-55
2022/03/20 05:52:11;;;;;;;;;;;1.20;86.80;;;;;;5182475;28;19926;-53
2022/03/20 05:54:43;;;;;;;;;;;1.20;86.30;;;;;;5179461;28;19936;-54
2022/03/20 06:00:16;;;;;;;;;;;1.20;86.30;;;;;;5179587;28;20332;-53
2022/03/20 06:02:48;;;;;;;;;;;1.20;86.70;;;;;;5156398;28;19925;-54
2022/03/20 06:05:21;;;;;;;;;;;1.30;86.70;;;;;;5160680;28;19928;-54
2022/03/20 06:07:54;;;;;;;;;;;1.30;86.70;;;;;;5175397;28;20947;-54
2022/03/20 06:10:26;;;;;;;;;;;1.30;86.60;;;;;;5164667;28;20025;-55
2022/03/20 06:12:58;;;;;;;;;;;1.30;86.60;;;;;;5177905;28;19932;-54
2022/03/20 06:15:31;;;;;;;;;;;1.40;86.70;;;;;;5176740;28;20418;-54
2022/03/20 06:18:04;;;;;;;;;;;1.40;86.40;;;;;;5179518;28;19929;-55
2022/03/20 06:20:37;;;;;;;;;;;1.40;86.00;;;;;;5173872;28;20401;-54
2022/03/20 06:23:09;;;;;;;;;;;1.50;86.90;;;;;;5173038;28;19929;-52
2022/03/20 06:25:43;;;;;;;;;;;1.50;86.00;;;;;;5174956;28;20423;-51
2022/03/20 06:28:15;;;;;;;;;;;1.60;86.80;;;;;;5172448;28;19925;-54
2022/03/20 06:30:47;;;;;;;;;;;1.60;85.50;;;;;;5169078;28;20223;-55
2022/03/20 06:33:20;;;;;;;;;;;1.70;86.30;;;;;;5146746;28;19937;-54
2022/03/20 06:35:53;;;;;;;;;;;1.80;86.50;;;;;;5166959;28;19925;-54
2022/03/20 06:38:25;;;;;;;;;;;1.80;86.60;;;;;;5157270;28;19925;-55
2022/03/20 06:40:58;;;;;;;;;;;1.80;86.30;;;;;;5172413;28;19928;-55
2022/03/20 06:43:30;;;;;;;;;;;1.90;86.50;;;;;;5177450;28;19932;-53
2022/03/20 06:46:03;;;;;;;;;;;1.90;86.50;;;;;;5180684;28;19952;-55
2022/03/20 06:48:55;;;;;;;;;;;2.00;86.30;;;;;;5172893;28;19925;-55
2022/03/20 06:51:27;;;;;;;;;;;2.10;87.10;;;;;;5176272;28;19944;-53
2022/03/20 06:53:59;;;;;;;;;;;2.20;86.40;;;;;;5160860;28;19925;-53
2022/03/20 06:56:32;;;;;;;;;;;2.20;86.30;;;;;;5181881;28;20439;-49
2022/03/20 06:59:04;;;;;;;;;;;2.30;86.50;;;;;;5178135;28;19925;-50
2022/03/20 07:01:37;;;;;;;;;;;2.30;85.80;;;;;;5177025;28;19929;-53
2022/03/20 07:04:10;;;;;;;;;;;2.40;85.40;;;;;;5177073;28;20316;-53
2022/03/20 07:06:42;;;;;;;;;;;2.50;85.00;;;;;;5192485;22;19943;-80
2022/03/20 07:09:15;;;;;;;;;;;2.60;85.00;;;;;;5193070;28;19925;-79
2022/03/20 07:11:47;;;;;;;;;;;2.70;84.00;;;;;;5189990;28;20894;-77
2022/03/20 07:14:19;;;;;;;;;;;2.80;84.00;;;;;;5194150;28;19927;-78
2022/03/20 07:16:53;;;;;;;;;;;2.90;84.10;;;;;;5194949;28;19924;-78
2022/03/20 07:19:26;;;;;;;;;;;2.90;83.20;;;;;;5188607;28;19925;-78
2022/03/20 07:21:59;;;;;;;;;;;3.10;82.80;;;;;;5191070;28;19920;-78
2022/03/20 07:24:34;;;;;;;;;;;3.20;82.70;;;;;;5176023;28;19936;-78
2022/03/20 07:29:58;;;;;;;;;;;3.50;82.60;;;;;;5197626;28;19932;-77
2022/03/20 07:32:30;;;;;;;;;;;3.60;82.00;;;;;;5192870;28;19929;-78
2022/03/20 07:35:02;;;;;;;;;;;3.70;81.50;;;;;;5194386;28;19932;-80
2022/03/20 07:37:35;;;;;;;;;;;3.70;80.80;;;;;;5181099;28;19932;-79
2022/03/20 07:40:09;;;;;;;;;;;3.80;80.40;;;;;;5164511;28;20588;-80
2022/03/20 07:42:41;;;;;;;;;;;3.90;80.70;;;;;;5182523;28;19928;-79
2022/03/20 07:45:13;;;;;;;;;;;4.00;80.80;;;;;;5174502;28;19929;-82
2022/03/20 07:47:46;;;;;;;;;;;4.10;80.40;;;;;;5185164;28;19933;-80
2022/03/20 07:50:18;;;;;;;;;;;4.20;80.20;;;;;;5190987;28;19928;-78
2022/03/20 07:52:50;;;;;;;;;;;4.30;79.30;;;;;;5198803;28;19921;-78
2022/03/20 07:55:23;;;;;;;;;;;4.50;79.70;;;;;;5181268;28;19929;-79
2022/03/20 07:57:55;;;;;;;;;;;4.60;78.80;;;;;;5199039;28;19929;-80
2022/03/20 08:00:28;;;;;;;;;;;4.70;77.70;;;;;;5155298;28;19929;-78
2022/03/20 08:03:00;;;;;;;;;;;4.80;77.40;;;;;;5198341;28;19971;-78
2022/03/20 08:05:33;;;;;;;;;;;4.90;76.80;;;;;;5191533;28;19925;-78
2022/03/20 08:08:05;;;;;;;;;;;5.00;76.40;;;;;;5182195;28;19925;-79
2022/03/20 08:10:37;;;;;;;;;;;5.10;75.70;;;;;;5194129;28;19925;-82
2022/03/20 08:13:11;;;;;;;;;;;5.20;74.40;;;;;;5192136;28;20360;-78
2022/03/20 08:15:55;;;;;;;;;;;5.30;74.70;;;;;;5184079;28;19944;-80
2022/03/20 08:18:27;;;;;;;;;;;5.40;74.60;;;;;;5194228;28;19925;-81
2022/03/20 08:21:00;;;;;;;;;;;5.60;74.50;;;;;;5195331;28;20396;-77
2022/03/20 08:23:32;;;;;;;;;;;5.70;73.70;;;;;;5187313;28;19931;-79
2022/03/20 08:26:07;;;;;;;;;;;5.80;74.50;;;;;;5199671;28;20303;-80
2022/03/20 08:28:45;;;;;;;;;;;5.90;73.90;;;;;;5174799;28;20773;-78
2022/03/20 08:31:17;;;;;;;;;;;6.10;72.80;;;;;;5194660;28;19920;-78
2022/03/20 08:33:50;;;;;;;;;;;6.20;72.20;;;;;;5189925;28;19925;-79
2022/03/20 08:36:24;;;;;;;;;;;6.30;72.20;;;;;;5185696;28;19932;-81
2022/03/20 08:38:56;;;;;;;;;;;6.40;72.00;;;;;;5208412;28;20303;-78
2022/03/20 08:41:28;;;;;;;;;;;6.50;72.50;;;;;;5175922;28;19956;-79
2022/03/20 08:44:05;;;;;;;;;;;6.60;72.20;;;;;;5169064;28;19952;-78
2022/03/20 08:46:37;;;;;;;;;;;6.70;71.90;;;;;;5181411;28;19925;-79
2022/03/20 08:49:10;;;;;;;;;;;6.80;72.50;;;;;;5186492;28;19925;-80
2022/03/20 08:51:43;;;;;;;;;;;6.90;71.50;;;;;;5181475;28;19925;-80
2022/03/20 08:54:15;;;;;;;;;;;7.00;70.50;;;;;;5187715;28;19921;-77
2022/03/20 08:56:48;;;;;;;;;;;7.00;68.60;;;;;;5191253;28;20371;-80
2022/03/20 08:59:20;;;;;;;;;;;7.10;68.40;;;;;;5197810;28;19928;-78
2022/03/20 09:01:52;;;;;;;;;;;7.20;69.60;;;;;;5186624;28;19925;-79
2022/03/20 09:04:25;;;;;;;;;;;7.30;69.90;;;;;;5186266;28;20400;-78
2022/03/20 09:06:57;;;;;;;;;;;7.40;69.00;;;;;;5192129;28;25684;-80
2022/03/20 09:09:29;;;;;;;;;;;7.40;68.20;;;;;;5198730;28;20296;-80
2022/03/20 09:12:01;;;;;;;;;;;7.50;69.40;;;;;;5189737;28;19920;-78
2022/03/20 09:14:35;;;;;;;;;;;7.60;68.90;;;;;;5175198;28;20406;-79
2022/03/20 09:19:58;;;;;;;;;;;7.90;66.30;;;;;;5193575;28;20395;-78
2022/03/20 09:22:30;;;;;;;;;;;8.00;66.60;;;;;;5197812;28;20419;-80
2022/03/20 09:25:03;;;;;;;;;;;8.10;66.50;;;;;;5186292;28;19935;-78
2022/03/20 09:27:35;;;;;;;;;;;8.20;67.20;;;;;;5187390;28;19936;-79
2022/03/20 09:30:09;;;;;;;;;;;8.20;64.90;;;;;;5176196;28;20123;-78
2022/03/20 09:32:46;;;;;;;;;;;8.40;65.00;;;;;;5172052;28;19929;-78
2022/03/20 09:35:22;;;;;;;;;;;8.50;64.30;;;;;;5177074;28;21052;-79
2022/03/20 09:37:55;;;;;;;;;;;8.60;64.30;;;;;;5193263;28;19924;-80
2022/03/20 09:40:27;;;;;;;;;;;8.60;64.20;;;;;;5187239;28;19929;-78
2022/03/20 09:43:36;;;;;;;;;;;8.70;64.10;;;;;;5191596;28;19929;-79
2022/03/20 09:46:09;;;;;;;;;;;8.80;63.90;;;;;;5138696;28;19942;-80
2022/03/20 09:48:41;;;;;;;;;;;9.00;62.70;;;;;;5143225;28;19932;-78
2022/03/20 09:51:14;;;;;;;;;;;9.00;61.30;;;;;;5198043;28;20312;-78
2022/03/20 09:53:46;;;;;;;;;;;9.10;62.50;;;;;;5179892;28;19929;-79
2022/03/20 09:56:18;;;;;;;;;;;9.10;61.90;;;;;;5181491;28;19929;-78
2022/03/20 09:58:53;;;;;;;;;;;9.20;62.90;;;;;;5183550;28;19925;-77
2022/03/20 10:01:34;;;;;;;;;;;9.30;61.60;;;;;;5168621;28;19932;-78
2022/03/20 10:04:10;;;;;;;;;;;9.40;61.60;;;;;;5188685;28;19939;-78
2022/03/20 10:06:42;;;;;;;;;;;9.50;61.60;;;;;;5186234;28;20868;-78
2022/03/20 10:09:16;;;;;;;;;;;9.60;61.60;;;;;;5185607;28;19929;-78
2022/03/20 10:11:49;;;;;;;;;;;9.60;62.60;;;;;;5188468;28;19940;-77
2022/03/20 10:14:23;;;;;;;;;;;9.70;60.70;;;;;;5194316;28;19928;-79
2022/03/20 10:17:17;;;;;;;;;;;9.80;60.60;;;;;;5175102;28;20015;-77
2022/03/20 10:19:49;;;;;;;;;;;9.90;61.00;;;;;;5173086;28;19924;-79
2022/03/20 10:22:21;;;;;;;;;;;10.00;61.00;;;;;;5181260;28;19929;-78
2022/03/20 10:24:54;;;;;;;;;;;10.10;59.70;;;;;;5188441;28;20540;-80
2022/03/20 10:27:26;;;;;;;;;;;10.10;59.40;;;;;;5196232;28;19925;-78
2022/03/20 10:30:00;;;;;;;;;;;10.20;58.20;;;;;;5198048;28;19925;-78
2022/03/20 10:32:32;;;;;;;;;;;10.30;58.80;;;;;;5171329;28;20384;-78
2022/03/20 10:35:11;;;;;;;;;;;10.30;59.70;;;;;;5181663;28;19924;-77
2022/03/20 10:37:46;;;;;;;;;;;10.40;58.00;;;;;;5202698;28;19924;-80
2022/03/20 10:40:26;;;;;;;;;;;10.50;56.90;;;;;;5177443;28;20541;-78
2022/03/20 10:43:07;;;;;;;;;;;10.60;55.00;;;;;;5183108;28;19930;-78
2022/03/20 10:45:51;;;;;;;;;;;10.60;54.10;;;;;;5189615;28;19928;-79
2022/03/20 10:48:27;;;;;;;;;;;10.70;56.60;;;;;;5177557;28;20484;-78
2022/03/20 10:51:02;;;;;;;;;;;10.70;56.60;;;;;;5199005;28;19925;-79
2022/03/20 10:53:34;;;;;;;;;;;10.80;57.90;;;;;;5193988;28;19928;-76
2022/03/20 10:56:07;;;;;;;;;;;10.90;56.80;;;;;;5195515;28;20349;-76
2022/03/20 10:58:40;;;;;;;;;;;11.10;58.00;;;;;;5184943;28;19929;-78
2022/03/20 11:01:12;;;;;;;;;;;11.20;57.30;;;;;;5191888;28;20352;-76
2022/03/20 11:03:46;;;;;;;;;;;11.30;55.60;;;;;;5183674;28;19928;-78
2022/03/20 11:06:22;;;;;;;;;;;11.40;55.30;;;;;;5187513;28;19929;-78
2022/03/20 11:08:56;;;;;;;;;;;11.50;56.00;;;;;;5202280;28;20384;-78
2022/03/20 11:11:28;;;;;;;;;;;11.60;53.50;;;;;;5188744;28;21039;-78
2022/03/20 11:14:02;;;;;;;;;;;11.70;55.10;;;;;;5166189;28;19929;-76
2022/03/20 11:16:38;;;;;;;;;;;11.80;55.10;;;;;;5204785;28;19929;-77
2022/03/20 11:19:11;;;;;;;;;;;11.90;54.00;;;;;;5183307;28;20304;-77
2022/03/20 11:21:44;;;;;;;;;;;11.90;52.00;;;;;;5201571;28;20842;-78
2022/03/20 11:24:17;;;;;;;;;;;12.00;52.40;;;;;;5187830;28;19928;-78
2022/03/20 11:26:50;;;;;;;;;;;12.00;53.40;;;;;;5197368;28;22396;-80
2022/03/20 11:29:24;;;;;;;;;;;12.10;53.20;;;;;;5193946;28;19928;-78
2022/03/20 11:31:58;;;;;;;;;;;12.10;53.30;;;;;;5186037;28;19924;-78
2022/03/20 11:34:31;;;;;;;;;;;12.10;54.30;;;;;;5195598;28;19928;-77
2022/03/20 11:37:07;;;;;;;;;;;12.10;53.10;;;;;;5194646;28;19925;-79
2022/03/20 11:39:59;;;;;;;;;;;12.10;52.70;;;;;;5190073;28;19931;-79
2022/03/20 11:42:32;;;;;;;;;;;12.20;53.30;;;;;;5185486;28;19937;-77
2022/03/20 11:45:04;;;;;;;;;;;12.40;53.80;;;;;;5185671;28;19928;-78
2022/03/20 11:47:40;;;;;;;;;;;12.40;53.40;;;;;;5193629;28;19931;-80
2022/03/20 11:50:17;;;;;;;;;;;12.50;51.50;;;;;;5185167;28;19948;-78
2022/03/20 11:52:58;;;;;;;;;;;12.50;51.40;;;;;;5179788;28;19920;-78
2022/03/20 11:55:32;;;;;;;;;;;12.60;52.60;;;;;;5173732;28;19925;-83
2022/03/20 11:58:17;;;;;;;;;;;12.70;51.10;;;;;;5182412;28;19924;-78
2022/03/20 12:01:09;;;;;;;;;;;12.70;51.90;;;;;;5172853;28;19928;-81
2022/03/20 12:03:53;;;;;;;;;;;12.80;51.50;;;;;;5193451;28;19935;-80
2022/03/20 12:06:36;;;;;;;;;;;12.90;52.00;;;;;;5172129;28;19936;-80
2022/03/20 12:09:35;;;;;;;;;;;12.90;51.00;;;;;;5176020;28;19936;-77
2022/03/20 12:19:05;;;;;;;;;;;13.10;51.00;;;;;;5177501;28;19921;-80
2022/03/20 12:21:53;;;;;;;;;;;13.00;49.00;;;;;;5182635;28;19932;-80
2022/03/20 12:24:34;;;;;;;;;;;12.90;50.30;;;;;;5174110;28;19925;-79
2022/03/20 12:27:22;;;;;;;;;;;12.90;49.10;;;;;;5184302;28;19932;-79
2022/03/20 12:30:21;;;;;;;;;;;12.90;51.00;;;;;;5171120;28;20302;-77
2022/03/20 12:32:55;;;;;;;;;;;12.90;50.10;;;;;;5172727;28;19929;-77
2022/03/20 12:35:29;;;;;;;;;;;13.00;50.50;;;;;;5167982;28;21013;-76
2022/03/20 12:38:03;;;;;;;;;;;13.00;49.50;;;;;;5172974;28;19936;-80
2022/03/20 12:40:42;;;;;;;;;;;13.00;50.00;;;;;;5181170;28;19925;-80
2022/03/20 12:43:21;;;;;;;;;;;13.00;49.50;;;;;;5173912;28;20566;-81
2022/03/20 12:45:55;;;;;;;;;;;13.10;49.50;;;;;;5176008;28;19929;-78
2022/03/20 12:48:32;;;;;;;;;;;13.10;51.10;;;;;;5168565;28;20808;-77
2022/03/20 12:51:09;;;;;;;;;;;13.10;51.70;;;;;;5172906;28;20505;-78
2022/03/20 12:53:45;;;;;;;;;;;13.20;48.40;;;;;;5174571;28;20293;-82
2022/03/20 12:56:31;;;;;;;;;;;13.20;48.80;;;;;;5172259;28;20471;-77
2022/03/20 12:59:17;;;;;;;;;;;13.20;49.40;;;;;;5172743;28;19924;-81
2022/03/20 13:01:50;;;;;;;;;;;13.20;47.80;;;;;;5183188;28;19931;-79
2022/03/20 13:04:23;;;;;;;;;;;13.20;47.90;;;;;;5196917;28;19924;-83
2022/03/20 13:06:55;;;;;;;;;;;13.10;48.40;;;;;;5196845;28;19932;-79
2022/03/20 13:09:28;;;;;;;;;;;13.10;50.60;;;;;;5194652;28;19928;-83
2022/03/20 13:12:00;;;;;;;;;;;13.20;50.10;;;;;;5188812;28;19932;-83
2022/03/20 13:14:32;;;;;;;;;;;13.30;50.40;;;;;;5191152;28;20658;-82
2022/03/20 13:17:04;;;;;;;;;;;13.40;49.10;;;;;;5187102;28;19928;-75
2022/03/20 13:19:37;;;;;;;;;;;13.40;48.40;;;;;;5166371;28;19928;-75
2022/03/20 13:22:10;;;;;;;;;;;13.40;48.40;;;;;;5176860;28;19924;-75
2022/03/20 13:24:43;;;;;;;;;;;13.40;48.60;;;;;;5184041;28;20202;-75
2022/03/20 13:27:15;;;;;;;;;;;13.40;47.60;;;;;;5179940;28;19936;-76
2022/03/20 13:29:51;;;;;;;;;;;13.50;48.90;;;;;;5172076;28;19936;-75
2022/03/20 13:32:23;;;;;;;;;;;13.60;48.20;;;;;;5180314;28;19929;-76
2022/03/20 13:34:55;;;;;;;;;;;13.60;49.10;;;;;;5194892;28;20728;-75
2022/03/20 13:37:28;;;;;;;;;;;13.50;48.50;;;;;;5195402;28;19924;-75
2022/03/20 13:40:00;;;;;;;;;;;13.50;48.70;;;;;;5190357;28;19924;-75
2022/03/20 13:42:33;;;;;;;;;;;13.50;48.90;;;;;;5192711;28;19929;-75
2022/03/20 13:45:06;;;;;;;;;;;13.60;48.70;;;;;;5197969;28;19929;-75
2022/03/20 13:47:40;;;;;;;;;;;13.60;48.30;;;;;;5210095;28;19929;-75
2022/03/20 13:50:13;;;;;;;;;;;13.70;49.30;;;;;;5192068;28;19925;-76
2022/03/20 13:52:49;;;;;;;;;;;13.70;50.90;;;;;;5197548;28;19925;-75
2022/03/20 13:55:21;;;;;;;;;;;13.70;49.00;;;;;;5188786;28;19921;-75
2022/03/20 13:57:55;;;;;;;;;;;13.80;48.70;;;;;;5181713;28;19948;-75
2022/03/20 14:00:35;;;;;;;;;;;13.90;49.10;;;;;;5187185;28;19924;-75
2022/03/20 14:03:08;;;;;;;;;;;13.90;48.70;;;;;;5189631;28;19925;-75
2022/03/20 14:05:49;;;;;;;;;;;13.90;47.90;;;;;;5188225;28;19935;-75
2022/03/20 14:08:23;;;;;;;;;;;13.90;49.20;;;;;;5197531;28;19929;-75
2022/03/20 14:10:56;;;;;;;;;;;14.00;47.40;;;;;;5183275;28;19940;-75
2022/03/20 14:13:29;;;;;;;;;;;14.00;47.80;;;;;;5197054;28;19963;-74
2022/03/20 14:16:10;;;;;;;;;;;13.90;47.50;;;;;;5185368;28;19936;-73
2022/03/20 14:18:43;;;;;;;;;;;13.90;47.00;;;;;;5187341;28;19925;-73
2022/03/20 14:21:20;;;;;;;;;;;14.00;47.00;;;;;;5188611;28;20076;-73
2022/03/20 14:23:56;;;;;;;;;;;14.00;48.10;;;;;;5173309;28;20459;-73
2022/03/20 14:26:37;;;;;;;;;;;14.00;47.90;;;;;;5185918;28;19929;-74
2022/03/20 14:29:12;;;;;;;;;;;14.00;48.40;;;;;;5194964;28;19951;-73
2022/03/20 14:40:21;;;;;;;;;;;14.00;46.90;;;;;;5198665;28;19929;-74
2022/03/20 14:43:06;;;;;;;;;;;14.00;48.50;;;;;;5189100;28;19936;-74
2022/03/20 14:45:39;;;;;;;;;;;14.00;47.60;;;;;;5201591;28;20481;-75
2022/03/20 14:48:12;;;;;;;;;;;14.10;47.80;;;;;;5200968;28;20299;-79
2022/03/20 14:50:44;;;;;;;;;;;14.10;47.90;;;;;;5192044;28;19983;-77
2022/03/20 14:53:23;;;;;;;;;;;14.20;47.60;;;;;;5200178;28;20307;-76
2022/03/20 14:55:56;;;;;;;;;;;14.10;48.80;;;;;;5205735;28;19929;-77
2022/03/20 14:58:30;;;;;;;;;;;14.10;47.50;;;;;;5182695;28;20156;-77
2022/03/20 15:01:02;;;;;;;;;;;14.10;47.00;;;;;;5186170;28;19935;-76
2022/03/20 15:03:35;;;;;;;;;;;14.10;46.30;;;;;;5201102;28;19929;-76
2022/03/20 15:06:07;;;;;;;;;;;14.00;47.00;;;;;;5187226;28;19932;-76
2022/03/20 15:11:36;;;;;;;;;;;14.00;48.30;;;;;;5199778;28;19936;-80
2022/03/20 15:14:08;;;;;;;;;;;14.00;48.10;;;;;;5199565;28;19929;-77
2022/03/20 15:16:41;;;;;;;;;;;13.90;47.40;;;;;;5185678;28;19933;-77
2022/03/20 15:19:13;;;;;;;;;;;13.90;48.00;;;;;;5206433;28;19932;-77
2022/03/20 15:21:46;;;;;;;;;;;13.90;48.70;;;;;;5191218;28;19928;-77
2022/03/20 15:24:18;;;;;;;;;;;13.90;48.70;;;;;;5204023;28;19924;-75
2022/03/20 15:26:51;;;;;;;;;;;13.90;48.90;;;;;;5205135;28;19943;-75
2022/03/20 15:29:23;;;;;;;;;;;13.90;48.50;;;;;;5200501;28;19931;-78
2022/03/20 15:31:58;;;;;;;;;;;13.90;48.70;;;;;;5188228;28;19955;-78
2022/03/20 15:34:36;;;;;;;;;;;13.80;49.10;;;;;;5171699;28;19928;-77
2022/03/20 15:37:11;;;;;;;;;;;13.70;48.70;;;;;;5177159;28;19925;-76
2022/03/20 15:39:43;;;;;;;;;;;13.60;48.50;;;;;;5180603;28;20675;-76
2022/03/20 15:42:16;;;;;;;;;;;13.50;48.80;;;;;;5192431;28;20795;-76
2022/03/20 15:44:48;;;;;;;;;;;13.50;49.30;;;;;;5181008;28;19927;-76
2022/03/20 15:47:20;;;;;;;;;;;13.40;48.90;;;;;;5188789;28;19925;-76
2022/03/20 15:49:52;;;;;;;;;;;13.30;48.70;;;;;;5177616;28;20828;-78
2022/03/20 15:52:24;;;;;;;;;;;13.30;49.20;;;;;;5184559;28;19940;-76
2022/03/20 15:54:57;;;;;;;;;;;13.30;48.70;;;;;;5199834;28;19931;-77